Time;durP1;ratioP1;P1;durP2;ratioP2;P2;SDS_P1;SDS_P2;PMS_P1;PMS_P2;Temp;Humidity;BMP_temperature;BMP_pressure;BME280_temperature;BME280_humidity;BME280_pressure;Samples;Min_cycle;Max_cycle;Signal;HPM_P1;HPM_P2
2022/11/26 00:01:09;;;;;;;17.63;4.70;;;;;;;6.45;100.00;97167.81;5063952;28;20200;-73
2022/11/26 00:03:36;;;;;;;12.23;5.00;;;;;;;6.45;100.00;97169.63;5063932;28;20207;-71
2022/11/26 00:06:04;;;;;;;12.17;4.33;;;;;;;6.50;100.00;97164.81;5061800;28;20201;-72
2022/11/26 00:08:34;;;;;;;14.07;4.77;;;;;;;6.55;100.00;97166.09;5067969;28;20228;-74
2022/11/26 00:11:01;;;;;;;10.50;4.10;;;;;;;6.49;100.00;97165.78;5066224;28;20928;-73
2022/11/26 00:13:30;;;;;;;17.30;4.83;;;;;;;6.47;100.00;97170.34;5063789;28;20565;-72
2022/11/26 00:15:57;;;;;;;11.00;4.60;;;;;;;6.44;100.00;97184.50;5066078;28;20234;-71
2022/11/26 00:18:25;;;;;;;10.60;4.10;;;;;;;6.37;100.00;97178.13;5061869;28;20340;-72
2022/11/26 00:20:56;;;;;;;14.93;4.63;;;;;;;6.49;100.00;97182.34;5069184;28;20665;-71
2022/11/26 00:23:26;;;;;;;10.47;4.40;;;;;;;6.55;100.00;97186.22;5067544;28;20200;-71
2022/11/26 00:25:54;;;;;;;9.97;4.07;;;;;;;6.54;100.00;97181.94;5063487;28;20203;-71
2022/11/26 00:28:26;;;;;;;13.37;4.20;;;;;;;6.37;100.00;97188.59;5067402;28;20234;-72
2022/11/26 00:30:54;;;;;;;13.00;4.80;;;;;;;6.42;100.00;97186.41;5066582;28;20287;-72
2022/11/26 00:33:21;;;;;;;11.23;4.47;;;;;;;6.40;100.00;97190.97;5063936;28;20208;-71
2022/11/26 00:35:49;;;;;;;10.77;4.10;;;;;;;6.36;100.00;97181.69;5061261;28;20602;-73
2022/11/26 00:38:19;;;;;;;10.60;3.97;;;;;;;6.41;100.00;97195.22;5060530;28;20576;-73
2022/11/26 00:40:48;;;;;;;14.07;4.80;;;;;;;6.34;100.00;97194.09;5064472;28;20207;-72
2022/11/26 00:43:16;;;;;;;8.80;4.20;;;;;;;6.29;100.00;97188.41;5064656;28;20200;-71
2022/11/26 00:45:43;;;;;;;12.97;3.80;;;;;;;6.17;100.00;97194.66;5067558;28;20295;-72
2022/11/26 00:48:10;;;;;;;7.23;4.03;;;;;;;6.20;100.00;97191.78;5060565;28;20224;-71
2022/11/26 00:50:40;;;;;;;9.47;3.70;;;;;;;6.19;100.00;97200.59;5061265;28;20204;-71
2022/11/26 00:53:10;;;;;;;13.37;4.10;;;;;;;6.12;100.00;97198.59;5066403;28;20211;-71
2022/11/26 00:55:38;;;;;;;11.27;3.67;;;;;;;6.18;100.00;97204.16;5062374;28;20224;-71
2022/11/26 00:58:07;;;;;;;10.87;3.87;;;;;;;6.15;100.00;97196.56;5060142;28;20215;-73
2022/11/26 01:00:35;;;;;;;9.60;3.70;;;;;;;6.12;100.00;97199.44;5062472;28;20204;-72
2022/11/26 01:03:02;;;;;;;11.67;4.93;;;;;;;6.14;100.00;97199.31;5065169;28;20205;-71
2022/11/26 01:05:32;;;;;;;8.10;4.30;;;;;;;6.19;100.00;97203.22;5068162;28;20207;-71
2022/11/26 01:08:01;;;;;;;9.70;4.13;;;;;;;6.11;100.00;97207.44;5069347;28;20199;-71
2022/11/26 01:10:31;;;;;;;11.33;4.27;;;;;;;6.17;100.00;97217.38;5064629;28;20219;-71
2022/11/26 01:12:58;;;;;;;11.00;3.63;;;;;;;6.15;100.00;97209.66;5060225;28;20572;-72
2022/11/26 01:15:26;;;;;;;11.93;4.23;;;;;;;6.18;100.00;97212.00;5064790;28;20970;-73
2022/11/26 01:17:53;;;;;;;8.33;4.13;;;;;;;6.16;100.00;97220.94;5062683;28;20201;-72
2022/11/26 01:20:25;;;;;;;9.20;4.27;;;;;;;6.25;100.00;97220.19;5066569;28;20235;-72
2022/11/26 01:22:52;;;;;;;10.43;4.27;;;;;;;6.20;100.00;97219.75;5071973;28;20203;-72
2022/11/26 01:25:20;;;;;;;11.03;4.73;;;;;;;6.17;100.00;97218.22;5073988;28;20222;-72
2022/11/26 01:27:46;;;;;;;10.40;4.53;;;;;;;6.10;100.00;97217.06;5069282;28;20203;-71
2022/11/26 01:30:19;;;;;;;8.97;4.00;;;;;;;6.15;100.00;97225.34;5067372;28;20216;-73
2022/11/26 01:32:47;;;;;;;8.83;4.13;;;;;;;6.19;100.00;97225.94;5068058;28;20201;-69
2022/11/26 01:35:15;;;;;;;10.17;4.30;;;;;;;6.12;100.00;97215.16;5065228;28;20216;-69
2022/11/26 01:37:42;;;;;;;7.27;3.80;;;;;;;6.12;100.00;97227.38;5063184;28;20211;-69
2022/11/26 01:40:31;;;;;;;14.10;4.10;;;;;;;6.24;100.00;97224.59;5068825;28;20242;-70
2022/11/26 01:43:00;;;;;;;8.93;3.63;;;;;;;6.16;100.00;97221.78;5062618;28;20200;-69
2022/11/26 01:45:27;;;;;;;7.97;3.83;;;;;;;6.15;100.00;97220.13;5069684;28;20664;-70
2022/11/26 01:47:55;;;;;;;10.17;4.17;;;;;;;6.17;100.00;97220.00;5066012;28;20223;-68
2022/11/26 01:50:48;;;;;;;7.40;4.03;;;;;;;6.30;100.00;97224.09;5066528;28;20220;-71
2022/11/26 01:53:21;;;;;;;12.63;4.63;;;;;;;6.22;100.00;97226.53;5066853;28;20203;-71
2022/11/26 01:55:51;;;;;;;13.93;4.10;;;;;;;6.21;100.00;97229.25;5071361;28;20212;-72
2022/11/26 01:58:22;;;;;;;7.00;3.80;;;;;;;6.17;100.00;97231.31;5067384;28;20207;-71
2022/11/26 02:00:50;;;;;;;8.10;3.20;;;;;;;6.10;100.00;97232.75;5060678;28;20747;-71
2022/11/26 02:03:19;;;;;;;11.83;4.40;;;;;;;6.14;100.00;97242.00;5065100;28;21109;-73
2022/11/26 02:05:54;;;;;;;9.30;4.23;;;;;;;6.14;100.00;97238.56;5062523;28;20619;-71
2022/11/26 02:08:21;;;;;;;10.30;3.47;;;;;;;6.09;100.00;97244.16;5065878;28;20231;-72
2022/11/26 02:10:47;;;;;;;10.80;4.10;;;;;;;6.15;100.00;97245.47;5066969;28;20323;-71
2022/11/26 02:13:14;;;;;;;10.17;4.00;;;;;;;6.04;100.00;97246.31;5065250;28;20588;-72
2022/11/26 02:15:49;;;;;;;11.60;3.87;;;;;;;6.12;100.00;97249.16;5064946;28;20792;-73
2022/11/26 02:18:18;;;;;;;7.90;4.00;;;;;;;6.08;100.00;97255.63;5063626;28;20283;-72
2022/11/26 02:20:55;;;;;;;9.30;3.30;;;;;;;6.12;100.00;97262.25;5065088;28;20359;-72
2022/11/26 02:23:56;;;;;;;9.50;3.63;;;;;;;6.03;100.00;97258.72;5068307;28;20290;-72
2022/11/26 02:26:39;;;;;;;12.20;3.60;;;;;;;6.10;100.00;97258.91;5059459;28;20236;-72
2022/11/26 02:29:21;;;;;;;10.30;3.57;;;;;;;6.17;100.00;97270.56;5061493;28;20311;-72
2022/11/26 02:31:56;;;;;;;7.90;3.30;;;;;;;6.01;100.00;97265.84;5058990;28;21111;-72
2022/11/26 02:34:30;;;;;;;12.23;3.70;;;;;;;6.18;100.00;97274.81;5070563;28;20200;-74
2022/11/26 02:37:00;;;;;;;10.53;3.77;;;;;;;6.21;100.00;97273.72;5060755;28;20220;-73
2022/11/26 02:39:29;;;;;;;12.50;3.77;;;;;;;6.18;100.00;97280.03;5066670;28;21177;-73
2022/11/26 02:41:57;;;;;;;10.13;3.93;;;;;;;6.14;100.00;97281.25;5064752;28;20219;-72
2022/11/26 02:44:25;;;;;;;8.47;3.77;;;;;;;6.05;100.00;97283.81;5065439;28;20207;-72
2022/11/26 02:46:58;;;;;;;11.87;3.60;;;;;;;5.98;100.00;97289.66;5060793;28;20196;-70
2022/11/26 02:49:27;;;;;;;11.87;3.40;;;;;;;5.99;100.00;97286.09;5061236;28;21175;-73
2022/11/26 02:51:56;;;;;;;9.80;3.47;;;;;;;6.10;100.00;97290.31;5064091;28;20212;-71
2022/11/26 02:54:24;;;;;;;10.30;3.63;;;;;;;6.07;100.00;97284.50;5073020;28;20208;-71
2022/11/26 02:56:52;;;;;;;11.83;4.67;;;;;;;6.07;100.00;97285.34;5068566;28;20969;-71
2022/11/26 02:59:20;;;;;;;11.53;3.83;;;;;;;6.07;100.00;97287.97;5068837;28;20224;-71
2022/11/26 03:01:52;;;;;;;10.37;3.87;;;;;;;6.18;100.00;97287.91;5067169;28;20210;-73
2022/11/26 03:04:24;;;;;;;8.57;3.53;;;;;;;6.20;100.00;97286.00;5065145;28;20204;-71
2022/11/26 03:06:52;;;;;;;10.30;5.03;;;;;;;6.24;100.00;97297.06;5065470;28;20209;-72
2022/11/26 03:09:22;;;;;;;9.20;4.17;;;;;;;6.17;100.00;97301.97;5063340;28;21083;-72
2022/11/26 03:11:48;;;;;;;6.33;3.40;;;;;;;6.10;100.00;97305.19;5066601;28;20341;-73
2022/11/26 03:14:15;;;;;;;9.23;3.60;;;;;;;5.96;100.00;97307.25;5070024;28;20208;-71
2022/11/26 03:16:41;;;;;;;8.83;3.57;;;;;;;6.01;100.00;97303.31;5065401;28;20234;-73
2022/11/26 03:19:08;;;;;;;10.57;4.17;;;;;;;5.99;100.00;97317.47;5065449;28;20228;-71
2022/11/26 03:21:36;;;;;;;11.87;4.20;;;;;;;6.04;100.00;97322.19;5063804;28;20203;-70
2022/11/26 03:24:02;;;;;;;11.03;3.73;;;;;;;6.05;100.00;97323.88;5058383;28;20215;-71
2022/11/26 03:26:29;;;;;;;12.77;3.60;;;;;;;6.08;100.00;97318.41;5059522;28;21110;-72
2022/11/26 03:28:55;;;;;;;12.30;3.60;;;;;;;6.13;100.00;97318.03;5057590;28;20234;-69
2022/11/26 03:31:22;;;;;;;13.83;3.70;;;;;;;6.10;100.00;97321.72;5057877;28;20557;-72
2022/11/26 03:33:48;;;;;;;8.07;4.10;;;;;;;6.04;100.00;97314.34;5056941;28;20234;-69
2022/11/26 03:36:15;;;;;;;11.33;3.97;;;;;;;6.03;100.00;97319.72;5059394;28;20594;-69
2022/11/26 03:38:43;;;;;;;12.53;3.50;;;;;;;6.14;100.00;97323.13;5057300;28;20227;-72
2022/11/26 03:41:09;;;;;;;6.77;3.30;;;;;;;6.09;100.00;97327.91;5060588;28;20210;-72
2022/11/26 03:43:36;;;;;;;8.70;4.33;;;;;;;6.19;100.00;97334.06;5064549;28;20207;-70
2022/11/26 03:46:02;;;;;;;12.60;3.80;;;;;;;6.09;100.00;97338.38;5057315;28;20200;-69
2022/11/26 03:48:29;;;;;;;11.53;3.83;;;;;;;6.10;100.00;97339.22;5057375;28;20224;-72
2022/11/26 03:50:55;;;;;;;8.43;3.47;;;;;;;6.14;100.00;97351.09;5062387;28;20583;-70
2022/11/26 03:55:55;;;;;;;7.87;3.23;;;;;;;6.15;100.00;97350.97;5055025;28;20211;-69
2022/11/26 03:58:22;;;;;;;8.13;3.97;;;;;;;6.09;100.00;97355.84;5056973;28;20204;-72
2022/11/26 04:00:49;;;;;;;7.77;3.53;;;;;;;6.16;100.00;97363.09;5070761;28;20557;-70
2022/11/26 04:03:15;;;;;;;8.67;4.07;;;;;;;6.19;100.00;97364.63;5060420;28;20204;-71
2022/11/26 04:05:42;;;;;;;10.37;3.53;;;;;;;6.17;100.00;97367.38;5070053;28;20200;-70
2022/11/26 04:08:08;;;;;;;9.47;3.13;;;;;;;6.13;100.00;97373.78;5057368;28;20200;-71
2022/11/26 04:10:35;;;;;;;11.70;3.90;;;;;;;6.17;100.00;97375.25;5056493;28;20201;-71
2022/11/26 04:13:03;;;;;;;13.60;3.90;;;;;;;6.09;100.00;97377.59;5060230;28;20212;-71
2022/11/26 04:15:29;;;;;;;12.23;3.47;;;;;;;5.97;100.00;97376.94;5061172;28;20708;-69
2022/11/26 04:17:56;;;;;;;11.93;4.37;;;;;;;6.06;100.00;97372.63;5057077;28;20712;-70
2022/11/26 04:20:22;;;;;;;17.47;5.07;;;;;;;6.12;100.00;97373.91;5063496;28;20228;-69
2022/11/26 04:22:49;;;;;;;18.93;5.23;;;;;;;6.11;100.00;97372.28;5059933;28;20211;-71
2022/11/26 04:25:15;;;;;;;10.37;4.27;;;;;;;6.04;100.00;97379.75;5057460;28;20262;-71
2022/11/26 04:27:42;;;;;;;12.67;4.20;;;;;;;6.03;100.00;97377.28;5056826;28;20208;-71
2022/11/26 04:30:11;;;;;;;12.60;3.83;;;;;;;6.14;100.00;97378.06;5057091;28;20228;-71
2022/11/26 04:32:38;;;;;;;17.07;3.73;;;;;;;6.08;100.00;97380.34;5056881;28;20201;-71
2022/11/26 04:35:06;;;;;;;8.00;3.70;;;;;;;6.10;100.00;97383.69;5056649;28;20212;-70
2022/11/26 04:37:33;;;;;;;12.90;3.93;;;;;;;6.05;100.00;97388.47;5056144;28;20211;-71
2022/11/26 04:39:59;;;;;;;9.53;3.87;;;;;;;6.09;100.00;97392.50;5064441;28;20230;-70
2022/11/26 04:42:26;;;;;;;12.67;4.50;;;;;;;6.12;100.00;97395.69;5060872;28;20211;-72
2022/11/26 04:44:53;;;;;;;12.53;3.30;;;;;;;6.21;100.00;97394.97;5073226;28;20210;-71
2022/11/26 04:47:20;;;;;;;17.53;4.70;;;;;;;6.20;100.00;97398.53;5061415;28;20200;-71
2022/11/26 04:49:47;;;;;;;12.73;3.63;;;;;;;6.17;100.00;97400.56;5066437;28;20313;-69
2022/11/26 04:52:14;;;;;;;8.90;3.47;;;;;;;6.12;100.00;97402.69;5062831;28;20200;-71
2022/11/26 04:54:40;;;;;;;7.43;3.70;;;;;;;6.13;100.00;97407.00;5060793;28;20215;-70
2022/11/26 04:57:07;;;;;;;16.70;4.57;;;;;;;6.11;100.00;97406.31;5060532;28;20224;-71
2022/11/26 04:59:33;;;;;;;9.53;4.13;;;;;;;6.14;100.00;97408.66;5064532;28;20220;-70
2022/11/26 05:02:00;;;;;;;13.33;3.97;;;;;;;5.94;100.00;97398.09;5063926;28;20207;-69
2022/11/26 05:04:28;;;;;;;10.63;3.57;;;;;;;6.03;100.00;97407.84;5059936;28;20204;-70
2022/11/26 05:06:55;;;;;;;13.40;4.07;;;;;;;6.03;100.00;97397.38;5065599;28;20208;-72
2022/11/26 05:09:22;;;;;;;14.93;3.87;;;;;;;6.02;100.00;97400.94;5060525;28;20685;-71
2022/11/26 05:11:48;;;;;;;9.60;4.27;;;;;;;5.93;100.00;97406.91;5060746;28;20230;-71
2022/11/26 05:14:15;;;;;;;11.07;4.43;;;;;;;6.01;100.00;97399.28;5059523;28;20390;-71
2022/11/26 05:16:41;;;;;;;12.13;3.70;;;;;;;6.07;100.00;97410.94;5063719;28;20232;-71
2022/11/26 05:19:08;;;;;;;21.87;4.40;;;;;;;6.04;100.00;97419.00;5060839;28;20224;-71
2022/11/26 05:21:36;;;;;;;6.33;3.90;;;;;;;6.05;100.00;97423.28;5060458;28;20196;-69
2022/11/26 05:24:02;;;;;;;9.73;4.17;;;;;;;6.01;100.00;97421.06;5062671;28;20207;-71
2022/11/26 05:26:29;;;;;;;5.93;3.47;;;;;;;6.06;100.00;97419.72;5060029;28;20196;-70
2022/11/26 05:28:55;;;;;;;12.73;3.90;;;;;;;6.05;100.00;97423.28;5066077;28;20235;-71
2022/11/26 05:31:22;;;;;;;7.60;4.27;;;;;;;6.02;100.00;97417.50;5061619;28;20208;-72
2022/11/26 05:33:48;;;;;;;15.30;5.60;;;;;;;5.84;100.00;97420.69;5059169;28;20204;-69
2022/11/26 05:36:15;;;;;;;13.97;4.33;;;;;;;5.89;100.00;97416.75;5059897;28;20216;-71
2022/11/26 05:38:42;;;;;;;15.33;4.50;;;;;;;5.80;100.00;97422.72;5059589;28;20806;-72
2022/11/26 05:41:09;;;;;;;13.63;4.33;;;;;;;5.70;100.00;97416.53;5059874;28;20692;-71
2022/11/26 05:43:35;;;;;;;9.83;4.07;;;;;;;5.55;100.00;97422.13;5059337;28;20212;-69
2022/11/26 05:46:06;;;;;;;10.07;4.40;;;;;;;5.46;100.00;97417.59;5059616;28;20688;-70
2022/11/26 05:48:32;;;;;;;15.43;4.13;;;;;;;5.49;100.00;97423.41;5065520;28;20723;-72
2022/11/26 05:51:00;;;;;;;7.33;4.27;;;;;;;5.49;100.00;97423.41;5060602;28;20223;-67
2022/11/26 05:53:27;;;;;;;14.53;5.93;;;;;;;5.51;100.00;97425.88;5058259;28;20200;-69
2022/11/26 05:55:54;;;;;;;11.07;4.17;;;;;;;5.53;100.00;97429.22;5059594;28;20692;-68
2022/11/26 05:58:21;;;;;;;8.90;4.67;;;;;;;5.42;100.00;97431.81;5059606;28;20225;-68
2022/11/26 06:00:47;;;;;;;14.37;6.37;;;;;;;5.36;100.00;97426.22;5059267;28;20197;-68
2022/11/26 06:03:14;;;;;;;9.30;4.90;;;;;;;5.38;100.00;97435.63;5060647;28;20692;-68
2022/11/26 06:05:40;;;;;;;13.33;4.37;;;;;;;5.35;100.00;97440.28;5059048;28;20215;-68
2022/11/26 06:08:07;;;;;;;11.00;4.33;;;;;;;5.30;100.00;97438.00;5065551;28;20687;-68
2022/11/26 06:10:33;;;;;;;24.40;10.20;;;;;;;5.21;100.00;97436.06;5058962;28;20684;-68
2022/11/26 06:13:01;;;;;;;20.27;9.47;;;;;;;5.28;100.00;97439.88;5058258;28;20708;-68
2022/11/26 06:15:28;;;;;;;30.70;12.80;;;;;;;5.23;100.00;97442.03;5058923;28;20203;-72
2022/11/26 06:17:54;;;;;;;40.97;16.53;;;;;;;5.23;100.00;97447.25;5058315;28;20220;-73
2022/11/26 06:20:21;;;;;;;31.87;12.23;;;;;;;5.22;100.00;97452.56;5058656;28;20599;-72
2022/11/26 06:22:47;;;;;;;21.50;9.70;;;;;;;5.21;100.00;97450.94;5058171;28;20204;-75
2022/11/26 06:25:14;;;;;;;26.17;10.50;;;;;;;5.15;100.00;97454.00;5058652;28;20204;-73
2022/11/26 06:27:41;;;;;;;27.17;10.70;;;;;;;5.15;100.00;97454.81;5057876;28;20322;-73
2022/11/26 06:30:12;;;;;;;30.10;12.70;;;;;;;5.25;100.00;97447.94;5058636;28;20247;-72
2022/11/26 06:32:38;;;;;;;39.50;13.10;;;;;;;5.14;100.00;97453.16;5057711;28;20755;-74
2022/11/26 06:35:06;;;;;;;25.63;10.97;;;;;;;5.15;100.00;97454.00;5057767;28;20212;-73
2022/11/26 06:37:32;;;;;;;22.23;8.23;;;;;;;5.13;100.00;97459.34;5057990;28;20896;-72
2022/11/26 06:39:59;;;;;;;17.33;7.37;;;;;;;5.06;100.00;97459.91;5058478;28;20224;-73
2022/11/26 06:42:26;;;;;;;16.07;5.97;;;;;;;4.97;100.00;97460.59;5065208;28;20204;-72
2022/11/26 06:44:52;;;;;;;10.10;4.20;;;;;;;4.96;100.00;97457.16;5058196;28;20231;-72
2022/11/26 06:47:20;;;;;;;18.47;6.27;;;;;;;4.99;100.00;97462.13;5065987;28;20214;-73
2022/11/26 06:49:47;;;;;;;37.10;11.20;;;;;;;4.92;100.00;97468.75;5065637;28;20653;-74
2022/11/26 06:52:14;;;;;;;35.70;12.43;;;;;;;4.93;100.00;97465.19;5057659;28;20204;-72
2022/11/26 06:54:40;;;;;;;25.53;8.87;;;;;;;4.90;100.00;97472.41;5057752;28;20215;-72
2022/11/26 06:57:07;;;;;;;23.17;7.90;;;;;;;4.86;100.00;97482.28;5058373;28;21282;-74
2022/11/26 06:59:33;;;;;;;25.23;8.17;;;;;;;4.88;100.00;97485.59;5057693;28;20844;-72
2022/11/26 07:02:00;;;;;;;18.97;6.67;;;;;;;4.89;100.00;97486.44;5057676;28;20217;-74
2022/11/26 07:04:28;;;;;;;20.63;6.60;;;;;;;4.95;100.00;97494.66;5056552;28;20584;-73
2022/11/26 07:06:54;;;;;;;18.50;6.87;;;;;;;4.93;100.00;97493.91;5057997;28;20193;-72
2022/11/26 07:09:21;;;;;;;25.00;7.10;;;;;;;4.93;100.00;97493.09;5057328;28;20594;-72
2022/11/26 07:11:48;;;;;;;16.87;5.93;;;;;;;4.98;100.00;97496.22;5057668;28;20201;-73
2022/11/26 07:14:14;;;;;;;24.60;8.03;;;;;;;4.99;100.00;97500.47;5057130;28;20211;-73
2022/11/26 07:16:41;;;;;;;19.87;7.27;;;;;;;4.99;100.00;97501.31;5057214;28;20215;-75
2022/11/26 07:19:07;;;;;;;25.07;7.83;;;;;;;4.94;100.00;97508.66;5057528;28;20228;-70
2022/11/26 07:21:35;;;;;;;24.23;8.53;;;;;;;5.02;100.00;97510.72;5056947;28;20219;-71
2022/11/26 07:24:01;;;;;;;19.70;8.37;;;;;;;4.94;100.00;97516.50;5056246;28;20200;-71
2022/11/26 07:26:28;;;;;;;15.63;7.37;;;;;;;4.92;100.00;97522.78;5065043;28;20593;-71
2022/11/26 07:28:54;;;;;;;20.17;6.73;;;;;;;4.97;100.00;97529.31;5066708;28;20224;-69
2022/11/26 07:31:23;;;;;;;17.30;6.77;;;;;;;5.06;100.00;97522.59;5067375;28;20223;-71
2022/11/26 07:33:50;;;;;;;19.10;6.87;;;;;;;5.08;100.00;97521.53;5056625;28;20200;-71
2022/11/26 07:36:19;;;;;;;17.87;6.40;;;;;;;5.08;100.00;97526.75;5064636;28;20561;-72
2022/11/26 07:38:48;;;;;;;17.53;6.33;;;;;;;5.10;100.00;97529.25;5056216;28;20286;-72
2022/11/26 07:41:16;;;;;;;19.47;6.30;;;;;;;5.16;100.00;97542.69;5056535;28;20219;-73
2022/11/26 07:43:44;;;;;;;13.63;6.43;;;;;;;5.27;100.00;97547.97;5056012;28;20771;-72
2022/11/26 07:46:14;;;;;;;17.37;7.57;;;;;;;5.40;100.00;97548.75;5056065;28;20200;-72
2022/11/26 07:48:41;;;;;;;17.30;6.17;;;;;;;5.49;100.00;97545.44;5056966;28;20224;-72
2022/11/26 07:51:15;;;;;;;15.63;7.07;;;;;;;5.58;100.00;97549.97;5057310;28;20581;-72
2022/11/26 07:53:41;;;;;;;13.53;6.90;;;;;;;5.55;100.00;97543.19;5059764;28;21220;-72
2022/11/26 07:56:09;;;;;;;12.30;6.50;;;;;;;5.65;100.00;97545.94;5056898;28;20208;-72
2022/11/26 07:58:36;;;;;;;14.53;6.37;;;;;;;5.54;100.00;97540.69;5057628;28;20255;-72
2022/11/26 08:01:07;;;;;;;12.87;5.97;;;;;;;5.74;100.00;97537.41;5055454;28;20208;-71
2022/11/26 08:03:37;;;;;;;10.23;6.20;;;;;;;5.75;100.00;97549.53;5055716;28;20653;-72
2022/11/26 08:06:06;;;;;;;19.40;6.40;;;;;;;5.81;100.00;97547.31;5064754;28;20204;-73
2022/11/26 08:08:33;;;;;;;16.63;5.73;;;;;;;5.87;100.00;97559.09;5056515;28;20220;-73
2022/11/26 08:11:00;;;;;;;10.90;5.20;;;;;;;5.88;100.00;97559.00;5064466;28;20896;-73
2022/11/26 08:13:28;;;;;;;14.77;5.60;;;;;;;5.89;100.00;97560.63;5056331;28;20250;-73
2022/11/26 08:15:54;;;;;;;10.03;4.17;;;;;;;5.94;100.00;97565.53;5064569;28;20204;-72
2022/11/26 08:18:21;;;;;;;14.73;5.30;;;;;;;5.86;100.00;97581.00;5056423;28;20339;-72
2022/11/26 08:20:54;;;;;;;12.03;5.27;;;;;;;5.95;100.00;97577.66;5064854;28;20582;-72
2022/11/26 08:23:21;;;;;;;10.13;4.53;;;;;;;5.99;100.00;97577.31;5055715;28;20209;-72
2022/11/26 08:25:47;;;;;;;11.83;5.40;;;;;;;5.98;100.00;97587.91;5056880;28;20200;-74
2022/11/26 08:28:14;;;;;;;14.70;5.07;;;;;;;6.03;100.00;97583.97;5056368;28;20211;-72
2022/11/26 08:30:41;;;;;;;9.13;4.07;;;;;;;6.15;100.00;97581.25;5063212;28;20295;-72
2022/11/26 08:33:08;;;;;;;18.00;4.83;;;;;;;6.15;100.00;97583.88;5056008;28;20208;-72
2022/11/26 08:35:35;;;;;;;9.57;4.73;;;;;;;5.99;100.00;97589.56;5055995;28;20211;-72
2022/11/26 08:38:01;;;;;;;13.83;6.03;;;;;;;6.20;100.00;97592.22;5056651;28;20231;-72
2022/11/26 08:40:28;;;;;;;14.17;6.93;;;;;;;6.35;100.00;97584.94;5060104;28;20240;-72
2022/11/26 08:42:54;;;;;;;22.13;5.93;;;;;;;6.39;100.00;97587.22;5055761;28;20587;-72
2022/11/26 08:45:21;;;;;;;7.57;4.03;;;;;;;6.49;100.00;97585.56;5062186;28;20211;-72
2022/11/26 08:47:49;;;;;;;13.17;5.53;;;;;;;6.69;100.00;97595.28;5056346;28;20679;-72
2022/11/26 08:50:15;;;;;;;13.93;4.30;;;;;;;6.75;100.00;97602.69;5069942;28;20234;-72
2022/11/26 08:52:42;;;;;;;9.07;4.43;;;;;;;6.84;100.00;97600.16;5055904;28;20208;-72
2022/11/26 08:55:09;;;;;;;10.80;4.33;;;;;;;6.90;100.00;97598.84;5056732;28;20201;-72
2022/11/26 08:57:36;;;;;;;14.77;4.37;;;;;;;6.85;100.00;97607.06;5055924;28;20224;-72
2022/11/26 09:00:04;;;;;;;11.03;4.37;;;;;;;6.87;100.00;97609.56;5056099;28;20228;-72
2022/11/26 09:02:30;;;;;;;15.17;4.90;;;;;;;6.90;100.00;97607.53;5056095;28;20210;-72
2022/11/26 09:04:59;;;;;;;12.83;4.67;;;;;;;7.00;100.00;97608.47;5055599;28;20201;-72
2022/11/26 09:07:25;;;;;;;14.97;5.27;;;;;;;7.03;100.00;97600.34;5055647;28;20201;-72
2022/11/26 09:09:52;;;;;;;9.50;4.80;;;;;;;7.07;100.00;97611.44;5056618;28;20597;-72
2022/11/26 09:12:18;;;;;;;14.23;4.70;;;;;;;7.13;100.00;97606.53;5054698;28;20201;-72
2022/11/26 09:14:45;;;;;;;10.73;4.70;;;;;;;7.16;100.00;97608.06;5055273;28;20215;-72
2022/11/26 09:17:12;;;;;;;10.50;4.47;;;;;;;7.34;100.00;97613.50;5056221;28;20216;-72
2022/11/26 09:19:38;;;;;;;13.00;5.03;;;;;;;7.30;100.00;97614.69;5063936;28;20217;-72
2022/11/26 09:22:06;;;;;;;13.23;4.70;;;;;;;7.44;100.00;97617.03;5055455;28;20212;-72
2022/11/26 09:24:33;;;;;;;11.73;4.90;;;;;;;7.44;100.00;97606.53;5059099;28;20205;-72
2022/11/26 09:26:59;;;;;;;15.80;5.23;;;;;;;7.52;100.00;97606.78;5056839;28;20204;-72
2022/11/26 09:29:25;;;;;;;12.53;4.90;;;;;;;7.57;100.00;97609.81;5066955;28;20231;-72
2022/11/26 09:31:52;;;;;;;13.77;4.43;;;;;;;7.59;100.00;97607.91;5059824;28;20200;-72
2022/11/26 09:34:19;;;;;;;7.83;4.30;;;;;;;7.69;100.00;97606.22;5066638;28;20669;-72
2022/11/26 09:36:45;;;;;;;11.47;4.70;;;;;;;7.88;100.00;97599.31;5059106;28;20216;-72
2022/11/26 09:39:14;;;;;;;10.07;4.23;;;;;;;8.02;100.00;97603.41;5070767;28;20228;-72
2022/11/26 09:41:45;;;;;;;8.03;3.93;;;;;;;8.15;100.00;97594.41;5059211;28;20223;-72
2022/11/26 09:44:24;;;;;;;11.80;4.43;;;;;;;8.23;100.00;97596.38;5066783;28;20200;-72
2022/11/26 09:46:59;;;;;;;8.47;4.60;;;;;;;8.11;100.00;97589.50;5058837;28;20996;-72
2022/11/26 09:49:30;;;;;;;11.47;4.13;;;;;;;8.31;100.00;97597.41;5059494;28;20239;-72
2022/11/26 09:51:59;;;;;;;10.40;4.07;;;;;;;8.01;100.00;97604.38;5063269;28;20572;-72
2022/11/26 09:54:29;;;;;;;8.83;3.80;;;;;;;8.11;100.00;97598.22;5059362;28;20212;-72
2022/11/26 09:57:02;;;;;;;7.47;3.83;;;;;;;8.24;100.00;97590.16;5059265;28;20270;-72
2022/11/26 09:59:30;;;;;;;8.80;3.50;;;;;;;8.18;100.00;97595.94;5058790;28;20228;-72
2022/11/26 10:01:56;;;;;;;8.87;4.17;;;;;;;8.15;100.00;97596.19;5058667;28;20204;-72
2022/11/26 10:04:26;;;;;;;10.10;4.20;;;;;;;8.23;100.00;97594.56;5058331;28;20192;-72
2022/11/26 10:07:03;;;;;;;13.47;4.20;;;;;;;8.48;100.00;97598.56;5064329;28;20664;-72
2022/11/26 10:09:46;;;;;;;10.23;3.67;;;;;;;8.31;100.00;97593.94;5058333;28;20228;-72
2022/11/26 10:12:26;;;;;;;9.30;3.93;;;;;;;8.42;100.00;97599.09;5067397;28;20214;-70
2022/11/26 10:15:03;;;;;;;6.77;3.77;;;;;;;8.56;100.00;97586.44;5058456;28;20211;-69
2022/11/26 10:17:38;;;;;;;9.87;4.07;;;;;;;8.66;100.00;97582.88;5058862;28;20200;-70
2022/11/26 10:20:27;;;;;;;11.63;4.80;;;;;;;8.91;100.00;97592.09;5058974;28;20224;-70
2022/11/26 10:23:00;;;;;;;11.63;4.40;;;;;;;9.02;100.00;97587.56;5059402;28;20284;-70
2022/11/26 10:25:31;;;;;;;12.37;4.33;;;;;;;9.02;100.00;97595.44;5062478;28;20683;-72
2022/11/26 10:27:59;;;;;;;8.87;4.27;;;;;;;9.20;100.00;97599.06;5059057;28;20196;-73
2022/11/26 10:30:27;;;;;;;11.23;4.07;;;;;;;9.02;100.00;97599.88;5058476;28;20589;-72
2022/11/26 10:32:56;;;;;;;10.27;3.53;;;;;;;9.25;100.00;97596.88;5057783;28;20208;-70
2022/11/26 10:35:25;;;;;;;9.20;3.80;;;;;;;9.36;100.00;97599.41;5058416;28;20212;-71
2022/11/26 10:37:52;;;;;;;7.70;3.70;;;;;;;9.33;99.82;97591.75;5057684;28;20212;-70
2022/11/26 10:40:24;;;;;;;10.50;3.60;;;;;;;9.30;97.86;97594.66;5057476;28;20225;-70
2022/11/26 10:43:00;;;;;;;8.63;3.77;;;;;;;9.21;100.00;97604.19;5057730;28;20873;-69
2022/11/26 10:45:39;;;;;;;10.63;3.30;;;;;;;9.14;100.00;97604.91;5059209;28;20207;-72
2022/11/26 10:48:16;;;;;;;11.97;3.73;;;;;;;9.01;100.00;97599.03;5057844;28;20668;-71
2022/11/26 10:50:54;;;;;;;8.90;3.50;;;;;;;8.91;100.00;97613.97;5063572;28;20616;-70
2022/11/26 10:53:22;;;;;;;10.30;3.90;;;;;;;8.85;100.00;97606.59;5061325;28;20191;-70
2022/11/26 10:55:52;;;;;;;13.10;4.00;;;;;;;8.88;100.00;97605.50;5062387;28;20649;-71
2022/11/26 10:58:24;;;;;;;18.10;3.83;;;;;;;8.94;100.00;97605.00;5060063;28;20260;-70
2022/11/26 11:00:59;;;;;;;8.97;3.70;;;;;;;8.93;100.00;97596.25;5064276;28;20571;-71
2022/11/26 11:03:28;;;;;;;13.47;4.13;;;;;;;8.94;100.00;97592.66;5056676;28;20220;-72
2022/11/26 11:06:25;;;;;;;8.13;3.90;;;;;;;9.04;100.00;97596.16;5057525;28;20689;-72
2022/11/26 11:08:52;;;;;;;14.07;4.00;;;;;;;8.79;100.00;97599.25;5057421;28;20776;-71
2022/11/26 11:11:21;;;;;;;10.10;4.30;;;;;;;8.75;100.00;97587.34;5057211;28;20201;-70
2022/11/26 11:13:49;;;;;;;14.00;4.67;;;;;;;8.78;100.00;97592.34;5056630;28;20200;-69
2022/11/26 11:16:25;;;;;;;20.73;5.73;;;;;;;8.94;100.00;97587.41;5057596;28;20227;-67
2022/11/26 11:18:55;;;;;;;10.10;3.37;;;;;;;9.08;100.00;97593.09;5057340;28;20258;-68
2022/11/26 11:21:24;;;;;;;15.33;3.50;;;;;;;9.13;100.00;97590.09;5057901;28;20196;-69
2022/11/26 11:23:51;;;;;;;10.30;2.93;;;;;;;9.15;99.25;97590.75;5056901;28;20208;-69
2022/11/26 11:26:22;;;;;;;8.50;3.10;;;;;;;9.17;99.85;97586.22;5056822;28;20751;-70
2022/11/26 11:28:52;;;;;;;16.87;3.10;;;;;;;9.24;100.00;97585.53;5056765;28;20221;-68
2022/11/26 11:31:20;;;;;;;12.90;3.30;;;;;;;10.27;100.00;97577.75;5065068;28;20548;-69
2022/11/26 11:33:48;;;;;;;11.73;3.63;;;;;;;10.74;100.00;97580.19;5056048;28;20672;-70
2022/11/26 11:36:20;;;;;;;11.70;3.40;;;;;;;10.93;99.43;97577.47;5064303;28;20229;-68